createdAt,value
2018-07-19T00:02:07.312Z,99.90
2018-07-19T00:07:03.395Z,99.90
2018-07-19T00:09:31.404Z,99.90
2018-07-19T00:14:27.186Z,99.90
2018-07-19T00:16:55.142Z,99.90
2018-07-19T00:19:23.162Z,99.90
2018-07-19T00:24:18.894Z,99.90
2018-07-19T00:26:47.163Z,99.90
2018-07-19T00:29:15.240Z,99.90
2018-07-19T00:31:43.348Z,99.90
2018-07-19T00:34:11.751Z,99.90
2018-07-19T00:36:39.971Z,99.90
2018-07-19T00:39:08.753Z,99.90
2018-07-19T00:41:36.579Z,99.90
2018-07-19T00:44:11.275Z,99.90
2018-07-19T00:46:39.236Z,99.90
2018-07-19T00:49:07.174Z,99.90
2018-07-19T00:51:36.066Z,99.90
2018-07-19T00:54:04.299Z,99.90
2018-07-19T00:56:32.279Z,99.90
2018-07-19T00:59:00.490Z,99.90
2018-07-19T01:01:28.350Z,99.90
2018-07-19T01:03:56.352Z,99.90
2018-07-19T01:06:24.322Z,99.90
2018-07-19T01:08:52.196Z,99.90
2018-07-19T01:11:20.259Z,99.90
2018-07-19T01:13:48.756Z,99.90
2018-07-19T01:16:16.966Z,99.90
2018-07-19T01:18:44.951Z,99.90
2018-07-19T01:21:13.060Z,99.90
2018-07-19T01:23:41.054Z,99.90
2018-07-19T01:26:08.840Z,99.90
2018-07-19T01:28:37.123Z,99.90
2018-07-19T01:31:05.304Z,99.90
2018-07-19T01:33:33.365Z,99.90
2018-07-19T01:36:01.891Z,99.90
2018-07-19T01:38:29.927Z,99.90
2018-07-19T01:40:58.888Z,99.90
2018-07-19T01:43:27.104Z,99.90
2018-07-19T01:45:55.118Z,99.90
2018-07-19T01:48:23.225Z,99.90
2018-07-19T01:50:51.139Z,99.90
2018-07-19T01:53:19.055Z,99.90
2018-07-19T01:55:47.483Z,99.90
2018-07-19T01:58:15.225Z,99.90
2018-07-19T02:00:43.224Z,99.90
2018-07-19T02:03:11.328Z,99.90
2018-07-19T02:05:39.423Z,99.90
2018-07-19T02:10:36.227Z,99.90
2018-07-19T02:13:04.240Z,99.90
2018-07-19T02:15:32.553Z,99.90
2018-07-19T02:18:00.644Z,99.90
2018-07-19T02:20:28.651Z,99.90
2018-07-19T02:22:56.908Z,99.90
2018-07-19T02:25:24.992Z,99.90
2018-07-19T02:27:53.366Z,99.90
2018-07-19T02:30:21.493Z,99.90
2018-07-19T02:32:49.941Z,99.90
2018-07-19T02:35:17.783Z,99.90
2018-07-19T02:37:45.718Z,99.90
2018-07-19T02:40:14.064Z,99.90
2018-07-19T02:42:41.940Z,99.90
2018-07-19T02:45:09.774Z,99.90
2018-07-19T02:50:05.588Z,99.90
2018-07-19T02:52:33.485Z,99.90
2018-07-19T02:55:01.297Z,99.90
2018-07-19T02:57:29.499Z,99.90
2018-07-19T02:59:57.433Z,99.90
2018-07-19T03:02:25.612Z,99.90
2018-07-19T03:04:53.736Z,99.90
2018-07-19T03:07:21.609Z,99.90
2018-07-19T03:09:49.712Z,99.90
2018-07-19T03:12:17.985Z,99.90
2018-07-19T03:14:45.951Z,99.90
2018-07-19T03:17:14.203Z,99.90
2018-07-19T03:19:42.363Z,99.90
2018-07-19T03:22:10.643Z,99.90
2018-07-19T03:24:39.508Z,99.90
2018-07-19T03:27:07.239Z,99.90
2018-07-19T03:29:35.425Z,99.90
2018-07-19T03:32:03.515Z,99.90
2018-07-19T03:34:31.910Z,99.90
2018-07-19T03:36:59.939Z,99.90
2018-07-19T03:39:27.836Z,99.90
2018-07-19T03:41:55.994Z,99.90
2018-07-19T03:44:23.978Z,99.90
2018-07-19T03:46:51.859Z,99.90
2018-07-19T03:49:20.348Z,99.90
2018-07-19T03:51:48.205Z,99.90
2018-07-19T03:54:16.265Z,99.90
2018-07-19T03:56:44.333Z,99.90
2018-07-19T04:01:40.618Z,99.90
2018-07-19T04:04:08.476Z,99.90
2018-07-19T04:06:36.497Z,99.90
2018-07-19T04:09:06.303Z,99.90
2018-07-19T04:11:34.924Z,99.90
2018-07-19T04:16:31.552Z,99.90
2018-07-19T04:18:59.739Z,99.90
2018-07-19T04:21:27.589Z,99.90
2018-07-19T04:26:24.143Z,99.90
2018-07-19T04:28:52.257Z,99.90
2018-07-19T04:31:21.085Z,99.90
2018-07-19T04:33:49.156Z,99.90
2018-07-19T04:36:16.996Z,99.90
2018-07-19T04:38:44.961Z,99.90
2018-07-19T04:41:13.083Z,99.90
2018-07-19T04:43:40.843Z,99.90
2018-07-19T04:46:08.999Z,99.90
2018-07-19T04:48:37.120Z,99.90
2018-07-19T04:51:05.156Z,99.90
2018-07-19T04:53:33.224Z,99.90
2018-07-19T04:58:29.077Z,99.90
2018-07-19T05:00:57.537Z,99.90
2018-07-19T05:03:25.687Z,99.90
2018-07-19T05:05:53.571Z,99.90
2018-07-19T05:08:21.671Z,99.90
2018-07-19T05:10:49.999Z,99.90
2018-07-19T05:13:18.789Z,99.90
2018-07-19T05:15:47.589Z,99.90
2018-07-19T05:18:15.768Z,99.90
2018-07-19T05:20:44.258Z,99.90
2018-07-19T05:23:12.817Z,99.90
2018-07-19T05:25:40.945Z,99.90
2018-07-19T05:28:08.771Z,99.90
2018-07-19T05:33:05.211Z,99.90
2018-07-19T05:35:33.144Z,99.90
2018-07-19T05:38:01.243Z,99.90
2018-07-19T05:40:29.262Z,99.90
2018-07-19T05:42:57.279Z,99.90
2018-07-19T05:45:25.472Z,99.90
2018-07-19T05:47:53.539Z,99.90
2018-07-19T05:50:21.625Z,99.90
2018-07-19T05:52:49.837Z,99.90
2018-07-19T05:55:17.885Z,99.90
2018-07-19T05:57:45.674Z,99.90
2018-07-19T06:00:14.528Z,99.90
2018-07-19T06:02:42.411Z,99.90
2018-07-19T06:05:10.793Z,99.90
2018-07-19T06:07:39.148Z,98.80
2018-07-19T06:10:07.464Z,97.40
2018-07-19T06:12:36.992Z,96.40
2018-07-19T06:15:05.841Z,95.90
2018-07-19T06:17:33.777Z,95.70
2018-07-19T06:20:02.127Z,94.20
2018-07-19T06:22:30.617Z,93.00
2018-07-19T06:29:54.771Z,86.00
2018-07-19T06:32:22.622Z,80.70
2018-07-19T06:34:51.216Z,80.20
2018-07-19T06:37:19.515Z,78.80
2018-07-19T06:39:47.740Z,75.20
2018-07-19T06:42:15.879Z,74.30
2018-07-19T06:44:44.228Z,71.10
2018-07-19T06:47:12.529Z,69.60
2018-07-19T06:49:40.889Z,69.30
2018-07-19T06:52:09.367Z,68.10
2018-07-19T06:54:37.287Z,66.20
2018-07-19T06:57:05.652Z,64.90
2018-07-19T06:59:33.711Z,63.10
2018-07-19T07:02:01.519Z,65.10
2018-07-19T07:04:29.667Z,63.30
2018-07-19T07:06:58.267Z,62.20
2018-07-19T07:09:26.516Z,61.90
2018-07-19T07:11:54.504Z,61.70
2018-07-19T07:14:22.844Z,59.90
2018-07-19T07:16:51.039Z,58.50
2018-07-19T07:19:19.053Z,58.40
2018-07-19T07:21:47.106Z,59.40
2018-07-19T07:24:15.285Z,60.20
2018-07-19T07:26:43.621Z,60.00
2018-07-19T07:29:11.991Z,59.40
2018-07-19T07:31:40.017Z,61.10
2018-07-19T07:34:08.496Z,61.00
2018-07-19T07:36:37.784Z,59.80
2018-07-19T07:39:08.112Z,61.30
2018-07-19T07:41:36.898Z,62.00
2018-07-19T07:44:05.310Z,62.10
2018-07-19T07:46:34.180Z,63.10
2018-07-19T07:49:02.598Z,61.80
2018-07-19T07:51:30.576Z,61.90
2018-07-19T07:56:26.781Z,59.70
2018-07-19T07:58:55.217Z,60.10
2018-07-19T08:01:23.260Z,62.60
2018-07-19T08:03:51.934Z,62.70
2018-07-19T08:08:48.528Z,64.20
2018-07-19T08:11:16.512Z,62.40
2018-07-19T08:13:44.955Z,62.50
2018-07-19T08:16:13.120Z,61.40
2018-07-19T08:18:41.018Z,61.70
2018-07-19T08:21:09.518Z,60.40
2018-07-19T08:23:38.028Z,60.30
2018-07-19T08:26:06.595Z,60.00
2018-07-19T08:28:34.471Z,60.80
2018-07-19T08:31:02.528Z,59.80
2018-07-19T08:33:31.096Z,61.40
2018-07-19T08:35:59.623Z,60.20
2018-07-19T08:38:27.931Z,60.10
2018-07-19T08:40:56.893Z,59.70
2018-07-19T08:43:24.967Z,59.30
2018-07-19T08:45:52.915Z,59.00
2018-07-19T08:48:21.305Z,59.20
2018-07-19T08:50:49.572Z,59.50
2018-07-19T08:53:17.825Z,62.40
2018-07-19T08:55:45.953Z,59.50
2018-07-19T08:58:14.042Z,58.50
2018-07-19T09:00:42.438Z,56.60
2018-07-19T09:03:10.378Z,56.60
2018-07-19T09:05:38.639Z,57.70
2018-07-19T09:10:34.929Z,58.70
2018-07-19T09:13:02.942Z,56.60
2018-07-19T09:15:31.561Z,56.30
2018-07-19T09:17:59.490Z,58.00
2018-07-19T09:20:27.319Z,58.70
2018-07-19T09:22:55.432Z,57.70
2018-07-19T09:25:23.616Z,56.90
2018-07-19T09:27:51.880Z,55.80
2018-07-19T09:30:19.943Z,55.30
2018-07-19T09:32:48.092Z,55.30
2018-07-19T09:35:16.264Z,55.60
2018-07-19T09:37:44.307Z,54.80
2018-07-19T09:40:12.234Z,54.70
2018-07-19T09:42:40.485Z,55.30
2018-07-19T09:45:08.468Z,54.60
2018-07-19T09:47:37.054Z,54.40
2018-07-19T09:50:05.403Z,55.70
2018-07-19T09:52:33.759Z,54.50
2018-07-19T09:55:02.978Z,54.40
2018-07-19T09:57:31.665Z,54.20
2018-07-19T09:59:59.675Z,53.80
2018-07-19T10:02:27.937Z,54.00
2018-07-19T10:04:56.021Z,53.40
2018-07-19T10:07:24.432Z,54.20
2018-07-19T10:09:52.274Z,56.50
2018-07-19T10:12:20.293Z,52.50
2018-07-19T10:14:48.836Z,52.50
2018-07-19T10:17:17.497Z,53.40
2018-07-19T10:19:45.446Z,53.50
2018-07-19T10:22:13.744Z,51.60
2018-07-19T10:24:42.598Z,50.90
2018-07-19T10:27:10.597Z,50.60
2018-07-19T10:29:38.534Z,51.00
2018-07-19T10:32:07.625Z,52.20
2018-07-19T10:34:35.863Z,50.80
2018-07-19T10:37:03.638Z,51.60
2018-07-19T10:39:32.408Z,52.20
2018-07-19T10:42:00.427Z,52.20
2018-07-19T10:44:28.679Z,52.90
2018-07-19T10:46:56.552Z,51.50
2018-07-19T10:49:24.629Z,51.30
2018-07-19T10:51:52.884Z,51.80
2018-07-19T10:54:21.346Z,51.20
2018-07-19T10:56:49.444Z,51.10
2018-07-19T10:59:17.310Z,51.00
2018-07-19T11:01:45.140Z,49.20
2018-07-19T11:04:13.162Z,50.20
2018-07-19T11:06:41.609Z,50.80
2018-07-19T11:09:10.235Z,49.20
2018-07-19T11:11:38.677Z,49.70
2018-07-19T11:14:07.015Z,48.90
2018-07-19T11:16:36.572Z,48.90
2018-07-19T11:19:04.728Z,48.70
2018-07-19T11:24:01.605Z,48.70
2018-07-19T11:26:29.651Z,48.40
2018-07-19T11:28:57.656Z,49.10
2018-07-19T11:31:25.706Z,47.90
2018-07-19T11:36:21.863Z,50.20
2018-07-19T11:38:50.032Z,49.00
2018-07-19T11:41:18.647Z,49.00
2018-07-19T11:43:46.786Z,48.80
2018-07-19T11:46:14.764Z,48.50
2018-07-19T11:48:42.978Z,49.00
2018-07-19T11:51:11.108Z,49.10
2018-07-19T11:53:39.913Z,47.00
2018-07-19T11:56:07.919Z,47.70
2018-07-19T11:58:36.067Z,48.00
2018-07-19T12:01:04.247Z,48.20
2018-07-19T12:03:32.492Z,49.40
2018-07-19T12:06:00.962Z,50.20
2018-07-19T12:08:29.293Z,49.30
2018-07-19T12:10:57.630Z,47.00
2018-07-19T12:13:26.448Z,47.60
2018-07-19T12:15:55.815Z,45.50
2018-07-19T12:18:24.243Z,47.30
2018-07-19T12:20:52.641Z,47.50
2018-07-19T12:23:20.918Z,47.50
2018-07-19T12:25:49.016Z,47.00
2018-07-19T12:28:17.763Z,47.80
2018-07-19T12:30:45.852Z,49.10
2018-07-19T12:33:13.999Z,47.20
2018-07-19T12:35:42.420Z,48.50
2018-07-19T12:38:10.305Z,47.30
2018-07-19T12:40:38.644Z,48.10
2018-07-19T12:43:07.126Z,47.20
2018-07-19T12:45:35.707Z,46.60
2018-07-19T12:48:04.368Z,47.40
2018-07-19T12:50:32.606Z,46.30
2018-07-19T12:53:01.313Z,46.20
2018-07-19T12:55:29.751Z,45.80
2018-07-19T12:57:59.676Z,45.40
2018-07-19T13:00:28.584Z,45.60
2018-07-19T13:02:57.178Z,47.30
2018-07-19T13:05:29.017Z,46.00
2018-07-19T13:07:58.057Z,47.60
2018-07-19T13:10:26.150Z,48.70
2018-07-19T13:12:55.115Z,48.20
2018-07-19T13:15:24.332Z,46.60
2018-07-19T13:17:52.704Z,47.80
2018-07-19T13:20:21.058Z,47.30
2018-07-19T13:22:49.365Z,47.40
2018-07-19T13:25:17.271Z,47.20
2018-07-19T13:27:45.260Z,46.90
2018-07-19T13:30:14.118Z,47.90
2018-07-19T13:32:41.980Z,47.80
2018-07-19T13:35:09.951Z,46.90
2018-07-19T13:37:38.010Z,47.40
2018-07-19T13:40:06.236Z,47.40
2018-07-19T13:42:34.794Z,48.00
2018-07-19T13:45:03.076Z,48.00
2018-07-19T13:47:31.824Z,47.40
2018-07-19T13:49:59.868Z,45.50
2018-07-19T13:52:39.102Z,46.10
2018-07-19T13:55:08.299Z,47.10
2018-07-19T13:57:36.264Z,46.20
2018-07-19T14:00:05.155Z,47.50
2018-07-19T14:02:33.463Z,48.70
2018-07-19T14:05:01.749Z,47.50
2018-07-19T14:07:29.518Z,47.00
2018-07-19T14:09:58.045Z,47.50
2018-07-19T14:12:26.072Z,46.70
2018-07-19T14:14:53.914Z,46.80
2018-07-19T14:17:22.197Z,47.50
2018-07-19T14:19:51.996Z,48.10
2018-07-19T14:22:20.101Z,47.30
2018-07-19T14:24:48.252Z,46.20
2018-07-19T14:27:16.381Z,47.10
2018-07-19T14:29:44.628Z,46.80
2018-07-19T14:32:12.826Z,46.80
2018-07-19T14:34:41.288Z,46.40
2018-07-19T14:37:09.333Z,46.60
2018-07-19T14:39:37.677Z,46.30
2018-07-19T14:42:06.353Z,47.60
2018-07-19T14:44:34.874Z,47.80
2018-07-19T14:47:02.930Z,46.30
2018-07-19T14:49:30.982Z,47.00
2018-07-19T14:51:58.848Z,46.00
2018-07-19T14:54:26.734Z,46.20
2018-07-19T14:56:54.814Z,46.80
2018-07-19T14:59:22.681Z,48.00
2018-07-19T15:01:50.915Z,45.60
2018-07-19T15:04:19.365Z,47.20
2018-07-19T15:06:47.434Z,47.20
2018-07-19T15:09:15.530Z,47.90
2018-07-19T15:11:44.119Z,45.60
2018-07-19T15:14:12.046Z,45.70
2018-07-19T15:16:40.349Z,46.50
2018-07-19T15:19:08.371Z,47.50
2018-07-19T15:21:37.392Z,45.90
2018-07-19T15:24:05.894Z,46.10
2018-07-19T15:26:34.947Z,46.00
2018-07-19T15:29:02.966Z,47.00
2018-07-19T15:31:30.775Z,45.80
2018-07-19T15:33:58.867Z,45.40
2018-07-19T15:36:27.021Z,46.20
2018-07-19T15:38:55.906Z,46.90
2018-07-19T15:41:24.021Z,45.00
2018-07-19T15:43:52.040Z,45.50
2018-07-19T15:48:48.402Z,45.00
2018-07-19T15:51:16.328Z,46.40
2018-07-19T15:53:44.263Z,46.30
2018-07-19T15:56:12.138Z,45.80
2018-07-19T15:58:43.023Z,45.50
2018-07-19T16:03:39.552Z,46.40
2018-07-19T16:06:07.461Z,46.30
2018-07-19T16:08:35.589Z,44.90
2018-07-19T16:11:03.749Z,44.50
2018-07-19T16:13:31.907Z,46.00
2018-07-19T16:16:00.579Z,47.00
2018-07-19T16:18:28.799Z,46.80
2018-07-19T16:20:57.038Z,46.40
2018-07-19T16:23:25.116Z,47.40
2018-07-19T16:25:54.045Z,46.00
2018-07-19T16:28:22.304Z,46.30
2018-07-19T16:30:50.599Z,47.30
2018-07-19T16:33:19.052Z,45.60
2018-07-19T16:35:47.126Z,46.50
2018-07-19T16:38:15.184Z,46.60
2018-07-19T16:40:43.655Z,46.90
2018-07-19T16:43:11.649Z,47.70
2018-07-19T16:45:40.079Z,47.60
2018-07-19T16:48:08.315Z,47.10
2018-07-19T16:50:36.426Z,46.60
2018-07-19T16:55:32.045Z,49.70
2018-07-19T17:00:28.131Z,47.10
2018-07-19T17:02:55.931Z,50.50
2018-07-19T17:05:23.871Z,47.30
2018-07-19T17:07:51.959Z,47.00
2018-07-19T17:10:20.068Z,47.40
2018-07-19T17:12:48.287Z,50.30
2018-07-19T17:15:16.670Z,53.50
2018-07-19T17:17:44.644Z,50.70
2018-07-19T17:20:13.025Z,48.80
2018-07-19T17:22:40.977Z,50.50
2018-07-19T17:25:08.845Z,47.40
2018-07-19T17:27:38.073Z,52.50
2018-07-19T17:30:06.698Z,47.60
2018-07-19T17:32:35.099Z,48.90
2018-07-19T17:35:03.316Z,54.20
2018-07-19T17:37:32.160Z,55.70
2018-07-19T17:39:59.861Z,56.50
2018-07-19T17:42:27.870Z,56.90
2018-07-19T17:44:56.156Z,56.50
2018-07-19T17:47:24.800Z,56.60
2018-07-19T17:49:54.737Z,57.40
2018-07-19T17:52:23.110Z,59.10
2018-07-19T17:54:52.116Z,59.10
2018-07-19T17:57:20.176Z,58.70
2018-07-19T17:59:48.058Z,59.00
2018-07-19T18:02:15.973Z,58.80
2018-07-19T18:04:44.661Z,60.40
2018-07-19T18:07:13.133Z,59.40
2018-07-19T18:09:41.317Z,60.00
2018-07-19T18:12:09.494Z,60.40
2018-07-19T18:14:39.542Z,60.70
2018-07-19T18:17:08.089Z,62.20
2018-07-19T18:19:36.454Z,61.40
2018-07-19T18:22:04.574Z,63.30
2018-07-19T18:24:32.773Z,62.30
2018-07-19T18:27:00.929Z,62.50
2018-07-19T18:29:29.816Z,62.70
2018-07-19T18:31:57.954Z,63.00
2018-07-19T18:34:26.381Z,63.80
2018-07-19T18:36:54.528Z,64.50
2018-07-19T18:39:22.453Z,65.60
2018-07-19T18:41:50.659Z,66.00
2018-07-19T18:44:18.606Z,66.20
2018-07-19T18:46:46.565Z,66.10
2018-07-19T18:49:14.725Z,67.10
2018-07-19T18:51:43.217Z,68.10
2018-07-19T18:54:11.813Z,69.50
2018-07-19T18:56:39.866Z,69.30
2018-07-19T18:59:07.989Z,69.60
2018-07-19T19:01:36.329Z,69.60
2018-07-19T19:04:04.497Z,71.10
2018-07-19T19:06:32.901Z,72.20
2018-07-19T19:09:01.075Z,73.00
2018-07-19T19:13:57.194Z,73.10
2018-07-19T19:16:25.915Z,73.90
2018-07-19T19:21:22.566Z,75.20
2018-07-19T19:23:50.617Z,75.50
2018-07-19T19:26:18.604Z,75.70
2018-07-19T19:28:46.943Z,76.50
2018-07-19T19:31:15.590Z,76.10
2018-07-19T19:33:43.993Z,77.20
2018-07-19T19:36:12.088Z,76.60
2018-07-19T19:38:40.250Z,76.80
2018-07-19T19:41:09.239Z,77.20
2018-07-19T19:43:38.283Z,78.00
2018-07-19T19:46:06.788Z,78.30
2018-07-19T19:48:36.299Z,78.60
2018-07-19T19:51:05.856Z,78.80
2018-07-19T19:53:33.868Z,79.30
2018-07-19T19:56:01.976Z,79.40
2018-07-19T19:58:30.628Z,79.80
2018-07-19T20:00:59.242Z,80.30
2018-07-19T20:03:28.649Z,80.50
2018-07-19T20:05:56.880Z,81.30
2018-07-19T20:08:25.414Z,81.40
2018-07-19T20:10:53.847Z,82.40
2018-07-19T20:13:22.709Z,82.50
2018-07-19T20:15:51.919Z,82.10
2018-07-19T20:18:21.427Z,82.40
2018-07-19T20:20:49.855Z,83.10
2018-07-19T20:23:18.283Z,82.50
2018-07-19T20:25:46.405Z,82.70
2018-07-19T20:28:14.733Z,82.80
2018-07-19T20:30:43.133Z,82.60
2018-07-19T20:33:12.971Z,83.20
2018-07-19T20:35:41.043Z,83.00
2018-07-19T20:38:09.734Z,83.10
2018-07-19T20:40:40.484Z,84.70
2018-07-19T20:45:36.767Z,84.60
2018-07-19T20:48:06.174Z,84.60
2018-07-19T20:50:35.308Z,85.00
2018-07-19T20:53:03.993Z,85.00
2018-07-19T20:55:32.732Z,85.10
2018-07-19T20:58:01.232Z,85.40
2018-07-19T21:00:29.646Z,86.20
2018-07-19T21:02:57.728Z,86.10
2018-07-19T21:07:54.205Z,87.00
2018-07-19T21:10:23.563Z,87.50
2018-07-19T21:12:51.868Z,87.60
2018-07-19T21:15:20.560Z,87.80
2018-07-19T21:17:48.791Z,87.90
2018-07-19T21:20:16.831Z,89.90
2018-07-19T21:22:44.953Z,90.20
2018-07-19T21:27:43.219Z,90.40
2018-07-19T21:30:11.577Z,90.80
2018-07-19T21:32:40.148Z,90.80
2018-07-19T21:35:09.269Z,91.20
2018-07-19T21:37:37.294Z,91.30
2018-07-19T21:40:05.920Z,91.70
2018-07-19T21:42:33.885Z,91.80
2018-07-19T21:45:02.086Z,92.20
2018-07-19T21:47:30.298Z,92.40
2018-07-19T21:49:58.404Z,92.70
2018-07-19T21:52:26.700Z,93.30
2018-07-19T21:54:55.693Z,93.70
2018-07-19T21:57:23.657Z,93.90
2018-07-19T21:59:52.241Z,94.10
2018-07-19T22:02:20.358Z,94.40
2018-07-19T22:04:48.498Z,94.70
2018-07-19T22:07:16.814Z,95.10
2018-07-19T22:09:45.067Z,95.10
2018-07-19T22:12:13.277Z,95.40
2018-07-19T22:14:41.184Z,95.70
2018-07-19T22:17:10.058Z,96.20
2018-07-19T22:19:37.925Z,96.50
2018-07-19T22:22:06.468Z,96.40
2018-07-19T22:24:35.617Z,96.30
2018-07-19T22:27:03.222Z,96.30
2018-07-19T22:29:31.334Z,96.40
2018-07-19T22:31:59.254Z,96.60
2018-07-19T22:34:27.365Z,96.90
2018-07-19T22:36:55.369Z,97.20
2018-07-19T22:39:23.281Z,97.40
2018-07-19T22:41:51.364Z,97.70
2018-07-19T22:44:19.449Z,97.90
2018-07-19T22:46:47.525Z,98.00
2018-07-19T22:49:15.711Z,98.10
2018-07-19T22:51:43.836Z,98.20
2018-07-19T22:54:12.012Z,98.40
2018-07-19T22:56:40.060Z,98.40
2018-07-19T22:59:08.065Z,98.80
2018-07-19T23:01:36.744Z,99.10
2018-07-19T23:04:04.650Z,99.10
2018-07-19T23:06:33.285Z,99.40
2018-07-19T23:09:01.288Z,99.50
2018-07-19T23:11:29.300Z,99.50
2018-07-19T23:13:57.337Z,99.70
2018-07-19T23:16:25.543Z,99.70
2018-07-19T23:18:53.303Z,99.50
2018-07-19T23:21:21.569Z,99.60
2018-07-19T23:23:49.396Z,99.30
2018-07-19T23:26:17.281Z,99.60
2018-07-19T23:28:45.483Z,99.90
2018-07-19T23:33:41.438Z,99.90
2018-07-19T23:36:23.376Z,99.90
2018-07-19T23:38:57.681Z,99.90
2018-07-19T23:41:32.833Z,99.90
2018-07-19T23:44:05.230Z,99.90
2018-07-19T23:49:07.307Z,99.90
2018-07-19T23:51:37.417Z,99.90
2018-07-19T23:54:05.923Z,99.90
2018-07-19T23:56:35.622Z,99.90
